sensor_id;sensor_type;location;lat;lon;timestamp;temperature;humidity
48488;DHT22;34289;48.572;13.378;2023-03-23T00:01:13;5.60;99.90
48488;DHT22;34289;48.572;13.378;2023-03-23T00:03:42;5.30;99.90
48488;DHT22;34289;48.572;13.378;2023-03-23T00:06:08;5.50;99.90
48488;DHT22;34289;48.572;13.378;2023-03-23T00:08:35;5.50;99.90
48488;DHT22;34289;48.572;13.378;2023-03-23T00:11:14;6.50;99.90
48488;DHT22;34289;48.572;13.378;2023-03-23T00:13:42;5.40;99.90
48488;DHT22;34289;48.572;13.378;2023-03-23T00:16:08;5.60;99.90
48488;DHT22;34289;48.572;13.378;2023-03-23T00:18:50;6.00;99.90
48488;DHT22;34289;48.572;13.378;2023-03-23T00:21:20;5.00;99.90
48488;DHT22;34289;48.572;13.378;2023-03-23T00:23:51;5.00;99.90
48488;DHT22;34289;48.572;13.378;2023-03-23T00:26:17;5.10;99.90
48488;DHT22;34289;48.572;13.378;2023-03-23T00:28:43;5.00;99.90
48488;DHT22;34289;48.572;13.378;2023-03-23T00:31:12;5.30;99.90
48488;DHT22;34289;48.572;13.378;2023-03-23T00:33:38;5.40;99.90
48488;DHT22;34289;48.572;13.378;2023-03-23T00:36:07;5.30;99.90
48488;DHT22;34289;48.572;13.378;2023-03-23T00:38:34;5.40;99.90
48488;DHT22;34289;48.572;13.378;2023-03-23T00:41:00;5.20;99.90
48488;DHT22;34289;48.572;13.378;2023-03-23T00:43:28;5.30;99.90
48488;DHT22;34289;48.572;13.378;2023-03-23T00:45:57;5.30;99.90
48488;DHT22;34289;48.572;13.378;2023-03-23T00:48:27;5.40;99.90
48488;DHT22;34289;48.572;13.378;2023-03-23T00:50:53;5.20;99.90
48488;DHT22;34289;48.572;13.378;2023-03-23T00:53:19;5.20;99.90
48488;DHT22;34289;48.572;13.378;2023-03-23T00:55:46;5.30;99.90
48488;DHT22;34289;48.572;13.378;2023-03-23T00:58:12;5.30;99.90
48488;DHT22;34289;48.572;13.378;2023-03-23T01:00:38;5.40;99.90
48488;DHT22;34289;48.572;13.378;2023-03-23T01:03:06;5.00;99.90
48488;DHT22;34289;48.572;13.378;2023-03-23T01:05:40;5.20;99.90
48488;DHT22;34289;48.572;13.378;2023-03-23T01:08:06;5.00;99.90
48488;DHT22;34289;48.572;13.378;2023-03-23T01:10:33;5.10;99.90
48488;DHT22;34289;48.572;13.378;2023-03-23T01:13:02;5.30;99.90
48488;DHT22;34289;48.572;13.378;2023-03-23T01:15:29;5.20;99.90
48488;DHT22;34289;48.572;13.378;2023-03-23T01:17:55;5.20;99.90
48488;DHT22;34289;48.572;13.378;2023-03-23T01:20:22;5.30;99.90
48488;DHT22;34289;48.572;13.378;2023-03-23T01:22:47;5.20;99.90
48488;DHT22;34289;48.572;13.378;2023-03-23T01:25:14;5.10;99.90
48488;DHT22;34289;48.572;13.378;2023-03-23T01:27:40;5.20;99.90
48488;DHT22;34289;48.572;13.378;2023-03-23T01:30:08;5.80;99.90
48488;DHT22;34289;48.572;13.378;2023-03-23T01:32:34;5.20;99.90
48488;DHT22;34289;48.572;13.378;2023-03-23T01:35:00;5.00;99.90
48488;DHT22;34289;48.572;13.378;2023-03-23T01:37:26;5.00;99.90
48488;DHT22;34289;48.572;13.378;2023-03-23T01:39:53;5.10;99.90
48488;DHT22;34289;48.572;13.378;2023-03-23T01:42:24;5.00;99.90
48488;DHT22;34289;48.572;13.378;2023-03-23T01:47:20;4.90;99.90
48488;DHT22;34289;48.572;13.378;2023-03-23T01:49:49;4.80;99.90
48488;DHT22;34289;48.572;13.378;2023-03-23T01:52:34;5.00;99.90
48488;DHT22;34289;48.572;13.378;2023-03-23T01:55:02;5.10;99.90
48488;DHT22;34289;48.572;13.378;2023-03-23T01:57:29;5.00;99.90
48488;DHT22;34289;48.572;13.378;2023-03-23T01:59:57;5.40;99.90
48488;DHT22;34289;48.572;13.378;2023-03-23T02:02:25;4.90;99.90
48488;DHT22;34289;48.572;13.378;2023-03-23T02:04:54;4.60;99.90
48488;DHT22;34289;48.572;13.378;2023-03-23T02:07:20;4.50;99.90
48488;DHT22;34289;48.572;13.378;2023-03-23T02:09:46;4.50;99.90
48488;DHT22;34289;48.572;13.378;2023-03-23T02:12:13;4.70;99.90
48488;DHT22;34289;48.572;13.378;2023-03-23T02:14:38;4.40;99.90
48488;DHT22;34289;48.572;13.378;2023-03-23T02:17:13;4.60;99.90
48488;DHT22;34289;48.572;13.378;2023-03-23T02:23:01;4.30;99.90
48488;DHT22;34289;48.572;13.378;2023-03-23T02:31:31;4.50;99.90
48488;DHT22;34289;48.572;13.378;2023-03-23T02:34:09;4.40;99.90
48488;DHT22;34289;48.572;13.378;2023-03-23T02:36:40;4.20;99.90
48488;DHT22;34289;48.572;13.378;2023-03-23T02:41:47;4.00;99.90
48488;DHT22;34289;48.572;13.378;2023-03-23T02:44:15;3.90;99.90
48488;DHT22;34289;48.572;13.378;2023-03-23T02:46:42;3.90;99.90
48488;DHT22;34289;48.572;13.378;2023-03-23T02:49:09;3.90;99.90
48488;DHT22;34289;48.572;13.378;2023-03-23T02:51:37;3.80;99.90
48488;DHT22;34289;48.572;13.378;2023-03-23T02:54:05;3.80;99.90
48488;DHT22;34289;48.572;13.378;2023-03-23T02:56:31;4.10;99.90
48488;DHT22;34289;48.572;13.378;2023-03-23T02:58:58;4.40;99.90
48488;DHT22;34289;48.572;13.378;2023-03-23T03:03:59;4.60;99.90
48488;DHT22;34289;48.572;13.378;2023-03-23T03:09:14;4.40;99.90
48488;DHT22;34289;48.572;13.378;2023-03-23T03:11:45;4.10;99.90
48488;DHT22;34289;48.572;13.378;2023-03-23T03:14:21;4.10;99.90
48488;DHT22;34289;48.572;13.378;2023-03-23T03:17:25;4.10;99.90
48488;DHT22;34289;48.572;13.378;2023-03-23T03:19:54;4.30;99.90
48488;DHT22;34289;48.572;13.378;2023-03-23T03:22:23;4.10;99.90
48488;DHT22;34289;48.572;13.378;2023-03-23T03:24:50;3.80;99.90
48488;DHT22;34289;48.572;13.378;2023-03-23T03:27:18;3.60;99.90
48488;DHT22;34289;48.572;13.378;2023-03-23T03:29:48;3.80;99.90
48488;DHT22;34289;48.572;13.378;2023-03-23T03:32:19;3.80;99.90
48488;DHT22;34289;48.572;13.378;2023-03-23T03:34:46;3.70;99.90
48488;DHT22;34289;48.572;13.378;2023-03-23T03:37:13;3.70;99.90
48488;DHT22;34289;48.572;13.378;2023-03-23T03:39:39;3.50;99.90
48488;DHT22;34289;48.572;13.378;2023-03-23T03:42:05;3.50;99.90
48488;DHT22;34289;48.572;13.378;2023-03-23T03:44:32;3.50;99.90
48488;DHT22;34289;48.572;13.378;2023-03-23T03:46:58;3.70;99.90
48488;DHT22;34289;48.572;13.378;2023-03-23T03:49:24;3.90;99.90
48488;DHT22;34289;48.572;13.378;2023-03-23T03:51:51;3.90;99.90
48488;DHT22;34289;48.572;13.378;2023-03-23T03:54:16;3.70;99.90
48488;DHT22;34289;48.572;13.378;2023-03-23T03:56:42;3.80;99.90
48488;DHT22;34289;48.572;13.378;2023-03-23T03:59:09;3.70;99.90
48488;DHT22;34289;48.572;13.378;2023-03-23T04:01:36;3.80;99.90
48488;DHT22;34289;48.572;13.378;2023-03-23T04:04:03;4.00;99.90
48488;DHT22;34289;48.572;13.378;2023-03-23T04:06:29;3.90;99.90
48488;DHT22;34289;48.572;13.378;2023-03-23T04:08:56;3.80;99.90
48488;DHT22;34289;48.572;13.378;2023-03-23T04:11:25;3.60;99.90
48488;DHT22;34289;48.572;13.378;2023-03-23T04:13:51;3.50;99.90
48488;DHT22;34289;48.572;13.378;2023-03-23T04:16:17;3.60;99.90
48488;DHT22;34289;48.572;13.378;2023-03-23T04:18:43;3.70;99.90
48488;DHT22;34289;48.572;13.378;2023-03-23T04:21:08;3.70;99.90
48488;DHT22;34289;48.572;13.378;2023-03-23T04:23:35;3.90;99.90
48488;DHT22;34289;48.572;13.378;2023-03-23T04:26:02;3.30;99.90
48488;DHT22;34289;48.572;13.378;2023-03-23T04:28:28;3.10;99.90
48488;DHT22;34289;48.572;13.378;2023-03-23T04:30:55;2.70;99.90
48488;DHT22;34289;48.572;13.378;2023-03-23T04:33:22;2.80;99.90
48488;DHT22;34289;48.572;13.378;2023-03-23T04:35:51;2.80;99.90
48488;DHT22;34289;48.572;13.378;2023-03-23T04:38:17;3.40;99.90
48488;DHT22;34289;48.572;13.378;2023-03-23T04:40:46;3.60;99.90
48488;DHT22;34289;48.572;13.378;2023-03-23T04:43:12;3.40;99.90
48488;DHT22;34289;48.572;13.378;2023-03-23T04:45:38;3.10;99.90
48488;DHT22;34289;48.572;13.378;2023-03-23T04:48:07;3.40;99.90
48488;DHT22;34289;48.572;13.378;2023-03-23T04:50:33;3.50;99.90
48488;DHT22;34289;48.572;13.378;2023-03-23T04:53:00;3.70;99.90
48488;DHT22;34289;48.572;13.378;2023-03-23T04:55:33;3.40;99.90
48488;DHT22;34289;48.572;13.378;2023-03-23T04:58:06;3.80;99.90
48488;DHT22;34289;48.572;13.378;2023-03-23T05:00:33;3.90;99.90
48488;DHT22;34289;48.572;13.378;2023-03-23T05:02:59;4.00;99.90
48488;DHT22;34289;48.572;13.378;2023-03-23T05:05:27;3.90;99.90
48488;DHT22;34289;48.572;13.378;2023-03-23T05:07:53;3.80;99.90
48488;DHT22;34289;48.572;13.378;2023-03-23T05:10:18;4.00;99.90
48488;DHT22;34289;48.572;13.378;2023-03-23T05:12:44;4.10;99.90
48488;DHT22;34289;48.572;13.378;2023-03-23T05:15:12;3.50;99.90
48488;DHT22;34289;48.572;13.378;2023-03-23T05:17:38;3.40;99.90
48488;DHT22;34289;48.572;13.378;2023-03-23T05:20:05;3.60;99.90
48488;DHT22;34289;48.572;13.378;2023-03-23T05:22:40;3.50;99.90
48488;DHT22;34289;48.572;13.378;2023-03-23T05:25:07;3.20;99.90
48488;DHT22;34289;48.572;13.378;2023-03-23T05:27:37;3.10;99.90
48488;DHT22;34289;48.572;13.378;2023-03-23T05:30:04;3.40;99.90
48488;DHT22;34289;48.572;13.378;2023-03-23T05:32:30;3.30;99.90
48488;DHT22;34289;48.572;13.378;2023-03-23T05:35:00;3.90;99.90
48488;DHT22;34289;48.572;13.378;2023-03-23T05:37:27;3.60;99.90
48488;DHT22;34289;48.572;13.378;2023-03-23T05:39:58;4.20;99.90
48488;DHT22;34289;48.572;13.378;2023-03-23T05:42:26;4.00;99.90
48488;DHT22;34289;48.572;13.378;2023-03-23T05:44:52;4.20;99.90
48488;DHT22;34289;48.572;13.378;2023-03-23T05:47:18;5.20;99.90
48488;DHT22;34289;48.572;13.378;2023-03-23T05:49:44;4.50;99.90
48488;DHT22;34289;48.572;13.378;2023-03-23T05:52:09;4.60;99.90
48488;DHT22;34289;48.572;13.378;2023-03-23T05:54:36;4.20;99.90
48488;DHT22;34289;48.572;13.378;2023-03-23T05:57:03;4.40;99.90
48488;DHT22;34289;48.572;13.378;2023-03-23T05:59:28;3.60;99.90
48488;DHT22;34289;48.572;13.378;2023-03-23T06:01:54;4.70;99.90
48488;DHT22;34289;48.572;13.378;2023-03-23T06:04:20;5.30;99.90
48488;DHT22;34289;48.572;13.378;2023-03-23T06:06:50;5.20;99.90
48488;DHT22;34289;48.572;13.378;2023-03-23T06:09:17;6.00;99.90
48488;DHT22;34289;48.572;13.378;2023-03-23T06:11:43;5.40;99.90
48488;DHT22;34289;48.572;13.378;2023-03-23T06:14:09;5.00;99.90
48488;DHT22;34289;48.572;13.378;2023-03-23T06:16:35;4.80;99.90
48488;DHT22;34289;48.572;13.378;2023-03-23T06:19:01;6.00;99.90
48488;DHT22;34289;48.572;13.378;2023-03-23T06:21:32;5.90;99.90
48488;DHT22;34289;48.572;13.378;2023-03-23T06:23:58;5.00;99.90
48488;DHT22;34289;48.572;13.378;2023-03-23T06:26:31;6.00;99.90
48488;DHT22;34289;48.572;13.378;2023-03-23T06:28:57;5.90;99.90
48488;DHT22;34289;48.572;13.378;2023-03-23T06:31:24;6.90;99.90
48488;DHT22;34289;48.572;13.378;2023-03-23T06:33:50;6.30;99.90
48488;DHT22;34289;48.572;13.378;2023-03-23T06:36:16;6.40;99.90
48488;DHT22;34289;48.572;13.378;2023-03-23T06:38:43;6.00;99.90
48488;DHT22;34289;48.572;13.378;2023-03-23T06:41:08;6.40;99.90
48488;DHT22;34289;48.572;13.378;2023-03-23T06:43:34;6.40;99.90
48488;DHT22;34289;48.572;13.378;2023-03-23T06:46:03;6.60;99.90
48488;DHT22;34289;48.572;13.378;2023-03-23T06:48:29;6.80;99.90
48488;DHT22;34289;48.572;13.378;2023-03-23T06:50:54;7.30;99.90
48488;DHT22;34289;48.572;13.378;2023-03-23T06:53:20;7.50;99.90
48488;DHT22;34289;48.572;13.378;2023-03-23T06:55:46;7.60;99.90
48488;DHT22;34289;48.572;13.378;2023-03-23T06:58:12;9.20;99.90
48488;DHT22;34289;48.572;13.378;2023-03-23T07:00:38;8.50;99.90
48488;DHT22;34289;48.572;13.378;2023-03-23T07:03:05;8.40;99.90
48488;DHT22;34289;48.572;13.378;2023-03-23T07:05:33;8.50;99.90
48488;DHT22;34289;48.572;13.378;2023-03-23T07:08:00;8.50;99.90
48488;DHT22;34289;48.572;13.378;2023-03-23T07:10:26;8.50;99.90
48488;DHT22;34289;48.572;13.378;2023-03-23T07:12:52;8.40;99.90
48488;DHT22;34289;48.572;13.378;2023-03-23T07:15:18;8.60;99.90
48488;DHT22;34289;48.572;13.378;2023-03-23T07:17:44;8.40;99.90
48488;DHT22;34289;48.572;13.378;2023-03-23T07:20:11;8.20;99.90
48488;DHT22;34289;48.572;13.378;2023-03-23T07:22:36;8.20;99.90
48488;DHT22;34289;48.572;13.378;2023-03-23T07:25:04;8.30;99.90
48488;DHT22;34289;48.572;13.378;2023-03-23T07:27:30;8.50;99.90
48488;DHT22;34289;48.572;13.378;2023-03-23T07:29:55;9.10;99.90
48488;DHT22;34289;48.572;13.378;2023-03-23T07:32:22;10.00;99.90
48488;DHT22;34289;48.572;13.378;2023-03-23T07:34:48;10.20;99.90
48488;DHT22;34289;48.572;13.378;2023-03-23T07:37:14;10.90;99.90
48488;DHT22;34289;48.572;13.378;2023-03-23T07:39:39;11.10;99.90
48488;DHT22;34289;48.572;13.378;2023-03-23T07:42:06;11.10;99.90
48488;DHT22;34289;48.572;13.378;2023-03-23T07:44:33;10.90;99.90
48488;DHT22;34289;48.572;13.378;2023-03-23T07:46:58;11.00;99.90
48488;DHT22;34289;48.572;13.378;2023-03-23T07:49:24;10.70;99.90
48488;DHT22;34289;48.572;13.378;2023-03-23T07:51:50;10.50;99.90
48488;DHT22;34289;48.572;13.378;2023-03-23T07:54:15;10.50;99.90
48488;DHT22;34289;48.572;13.378;2023-03-23T07:56:41;10.80;99.90
48488;DHT22;34289;48.572;13.378;2023-03-23T07:59:08;11.00;99.90
48488;DHT22;34289;48.572;13.378;2023-03-23T08:01:35;11.20;99.90
48488;DHT22;34289;48.572;13.378;2023-03-23T08:04:04;11.60;99.90
48488;DHT22;34289;48.572;13.378;2023-03-23T08:06:32;12.00;99.90
48488;DHT22;34289;48.572;13.378;2023-03-23T08:08:58;12.40;99.90
48488;DHT22;34289;48.572;13.378;2023-03-23T08:11:26;11.20;99.90
48488;DHT22;34289;48.572;13.378;2023-03-23T08:13:52;12.90;99.90
48488;DHT22;34289;48.572;13.378;2023-03-23T08:16:18;13.20;99.90
48488;DHT22;34289;48.572;13.378;2023-03-23T08:18:45;13.40;99.90
48488;DHT22;34289;48.572;13.378;2023-03-23T08:21:11;13.50;99.90
48488;DHT22;34289;48.572;13.378;2023-03-23T08:23:38;13.70;99.90
48488;DHT22;34289;48.572;13.378;2023-03-23T08:26:05;13.70;99.90
48488;DHT22;34289;48.572;13.378;2023-03-23T08:28:35;14.00;99.90
48488;DHT22;34289;48.572;13.378;2023-03-23T08:31:08;14.50;99.90
48488;DHT22;34289;48.572;13.378;2023-03-23T08:33:36;14.60;99.90
48488;DHT22;34289;48.572;13.378;2023-03-23T08:36:02;14.90;99.90
48488;DHT22;34289;48.572;13.378;2023-03-23T08:38:28;15.00;99.90
48488;DHT22;34289;48.572;13.378;2023-03-23T08:41:02;15.10;99.90
48488;DHT22;34289;48.572;13.378;2023-03-23T08:43:31;15.20;99.90
48488;DHT22;34289;48.572;13.378;2023-03-23T08:45:58;15.10;99.90
48488;DHT22;34289;48.572;13.378;2023-03-23T08:48:24;15.40;99.90
48488;DHT22;34289;48.572;13.378;2023-03-23T08:50:50;16.00;99.90
48488;DHT22;34289;48.572;13.378;2023-03-23T08:53:18;16.30;99.90
48488;DHT22;34289;48.572;13.378;2023-03-23T08:55:43;16.60;99.90
48488;DHT22;34289;48.572;13.378;2023-03-23T08:58:09;16.40;99.90
48488;DHT22;34289;48.572;13.378;2023-03-23T09:00:35;16.00;99.90
48488;DHT22;34289;48.572;13.378;2023-03-23T09:03:01;15.70;99.90
48488;DHT22;34289;48.572;13.378;2023-03-23T09:05:28;15.50;99.90
48488;DHT22;34289;48.572;13.378;2023-03-23T09:07:56;15.50;99.90
48488;DHT22;34289;48.572;13.378;2023-03-23T09:10:25;15.80;99.90
48488;DHT22;34289;48.572;13.378;2023-03-23T09:12:52;15.90;99.90
48488;DHT22;34289;48.572;13.378;2023-03-23T09:15:18;16.00;99.90
48488;DHT22;34289;48.572;13.378;2023-03-23T09:17:47;16.00;99.90
48488;DHT22;34289;48.572;13.378;2023-03-23T09:20:15;15.80;99.90
48488;DHT22;34289;48.572;13.378;2023-03-23T09:22:43;15.60;99.90
48488;DHT22;34289;48.572;13.378;2023-03-23T09:25:10;15.40;99.90
48488;DHT22;34289;48.572;13.378;2023-03-23T09:27:37;15.40;99.90
48488;DHT22;34289;48.572;13.378;2023-03-23T09:30:10;15.70;99.90
48488;DHT22;34289;48.572;13.378;2023-03-23T09:32:37;16.10;99.90
48488;DHT22;34289;48.572;13.378;2023-03-23T09:35:05;16.50;99.90
48488;DHT22;34289;48.572;13.378;2023-03-23T09:37:33;16.60;99.90
48488;DHT22;34289;48.572;13.378;2023-03-23T09:40:02;16.70;99.90
48488;DHT22;34289;48.572;13.378;2023-03-23T09:45:22;17.30;99.90
48488;DHT22;34289;48.572;13.378;2023-03-23T09:50:48;17.50;99.90
48488;DHT22;34289;48.572;13.378;2023-03-23T09:53:22;17.80;99.90
48488;DHT22;34289;48.572;13.378;2023-03-23T09:55:49;18.20;99.90
48488;DHT22;34289;48.572;13.378;2023-03-23T09:58:24;18.60;99.90
48488;DHT22;34289;48.572;13.378;2023-03-23T10:01:07;18.50;99.90
48488;DHT22;34289;48.572;13.378;2023-03-23T10:03:42;18.90;99.90
48488;DHT22;34289;48.572;13.378;2023-03-23T10:06:17;18.90;99.90
48488;DHT22;34289;48.572;13.378;2023-03-23T10:08:56;19.00;99.90
48488;DHT22;34289;48.572;13.378;2023-03-23T10:16:55;19.00;99.90
48488;DHT22;34289;48.572;13.378;2023-03-23T10:22:16;19.50;99.90
48488;DHT22;34289;48.572;13.378;2023-03-23T10:24:52;19.70;99.90
48488;DHT22;34289;48.572;13.378;2023-03-23T10:27:38;19.80;99.90
48488;DHT22;34289;48.572;13.378;2023-03-23T10:32:53;19.90;99.90
48488;DHT22;34289;48.572;13.378;2023-03-23T10:35:33;20.30;99.90
48488;DHT22;34289;48.572;13.378;2023-03-23T10:38:06;20.30;99.60
48488;DHT22;34289;48.572;13.378;2023-03-23T10:40:44;20.50;97.60
48488;DHT22;34289;48.572;13.378;2023-03-23T10:43:11;20.40;98.00
48488;DHT22;34289;48.572;13.378;2023-03-23T10:45:36;20.30;98.00
48488;DHT22;34289;48.572;13.378;2023-03-23T10:50:34;20.60;98.60
48488;DHT22;34289;48.572;13.378;2023-03-23T10:53:07;20.40;97.10
48488;DHT22;34289;48.572;13.378;2023-03-23T10:55:39;20.30;97.00
48488;DHT22;34289;48.572;13.378;2023-03-23T10:58:10;20.30;97.50
48488;DHT22;34289;48.572;13.378;2023-03-23T11:00:46;20.50;98.30
48488;DHT22;34289;48.572;13.378;2023-03-23T11:05:48;20.30;96.50
48488;DHT22;34289;48.572;13.378;2023-03-23T11:08:23;20.70;96.60
48488;DHT22;34289;48.572;13.378;2023-03-23T11:13:16;20.90;95.70
48488;DHT22;34289;48.572;13.378;2023-03-23T11:15:44;20.90;96.60
48488;DHT22;34289;48.572;13.378;2023-03-23T11:18:37;21.20;96.50
48488;DHT22;34289;48.572;13.378;2023-03-23T11:21:05;21.60;96.60
48488;DHT22;34289;48.572;13.378;2023-03-23T11:23:37;21.70;95.60
48488;DHT22;34289;48.572;13.378;2023-03-23T11:26:25;21.50;95.70
48488;DHT22;34289;48.572;13.378;2023-03-23T11:31:21;21.70;96.10
48488;DHT22;34289;48.572;13.378;2023-03-23T11:33:57;22.10;96.10
48488;DHT22;34289;48.572;13.378;2023-03-23T11:36:47;21.90;95.70
48488;DHT22;34289;48.572;13.378;2023-03-23T11:39:22;22.30;95.80
48488;DHT22;34289;48.572;13.378;2023-03-23T11:41:48;22.70;94.80
48488;DHT22;34289;48.572;13.378;2023-03-23T11:44:13;22.60;94.10
48488;DHT22;34289;48.572;13.378;2023-03-23T11:46:41;22.00;94.90
48488;DHT22;34289;48.572;13.378;2023-03-23T11:49:30;21.80;94.90
48488;DHT22;34289;48.572;13.378;2023-03-23T11:52:05;21.80;92.80
48488;DHT22;34289;48.572;13.378;2023-03-23T11:54:59;21.70;93.80
48488;DHT22;34289;48.572;13.378;2023-03-23T11:57:27;21.60;93.00
48488;DHT22;34289;48.572;13.378;2023-03-23T11:59:56;21.30;92.60
48488;DHT22;34289;48.572;13.378;2023-03-23T12:02:48;21.00;93.90
48488;DHT22;34289;48.572;13.378;2023-03-23T12:06:19;20.70;93.50
48488;DHT22;34289;48.572;13.378;2023-03-23T12:08:48;20.60;94.00
48488;DHT22;34289;48.572;13.378;2023-03-23T12:35:26;20.30;93.60
48488;DHT22;34289;48.572;13.378;2023-03-23T12:40:55;20.20;93.10
48488;DHT22;34289;48.572;13.378;2023-03-23T12:43:38;20.10;94.90
48488;DHT22;34289;48.572;13.378;2023-03-23T12:49:06;20.20;94.60
48488;DHT22;34289;48.572;13.378;2023-03-23T12:52:00;20.10;94.10
48488;DHT22;34289;48.572;13.378;2023-03-23T13:02:56;19.60;94.20
48488;DHT22;34289;48.572;13.378;2023-03-23T13:08:00;19.60;95.90
48488;DHT22;34289;48.572;13.378;2023-03-23T13:11:08;20.30;95.50
48488;DHT22;34289;48.572;13.378;2023-03-23T13:25:10;19.60;94.80
48488;DHT22;34289;48.572;13.378;2023-03-23T13:27:39;19.60;95.60
48488;DHT22;34289;48.572;13.378;2023-03-23T13:30:05;19.60;95.50
48488;DHT22;34289;48.572;13.378;2023-03-23T13:32:43;19.50;96.20
48488;DHT22;34289;48.572;13.378;2023-03-23T13:35:16;19.40;96.70
48488;DHT22;34289;48.572;13.378;2023-03-23T13:37:50;19.40;96.10
48488;DHT22;34289;48.572;13.378;2023-03-23T13:43:00;19.60;94.60
48488;DHT22;34289;48.572;13.378;2023-03-23T13:48:21;19.60;95.50
48488;DHT22;34289;48.572;13.378;2023-03-23T13:51:00;19.70;96.90
48488;DHT22;34289;48.572;13.378;2023-03-23T13:53:47;19.60;96.00
48488;DHT22;34289;48.572;13.378;2023-03-23T13:56:19;19.80;95.70
48488;DHT22;34289;48.572;13.378;2023-03-23T13:58:47;19.70;94.70
48488;DHT22;34289;48.572;13.378;2023-03-23T14:01:30;19.60;95.00
48488;DHT22;34289;48.572;13.378;2023-03-23T14:03:59;19.60;94.20
48488;DHT22;34289;48.572;13.378;2023-03-23T14:06:26;19.60;94.10
48488;DHT22;34289;48.572;13.378;2023-03-23T14:09:26;19.50;95.20
48488;DHT22;34289;48.572;13.378;2023-03-23T14:14:30;19.40;96.10
48488;DHT22;34289;48.572;13.378;2023-03-23T14:17:26;19.40;96.10
48488;DHT22;34289;48.572;13.378;2023-03-23T14:19:55;19.50;96.00
48488;DHT22;34289;48.572;13.378;2023-03-23T14:22:35;19.40;94.50
48488;DHT22;34289;48.572;13.378;2023-03-23T14:25:11;19.60;94.50
48488;DHT22;34289;48.572;13.378;2023-03-23T14:27:38;19.60;94.20
48488;DHT22;34289;48.572;13.378;2023-03-23T14:30:07;19.60;94.10
48488;DHT22;34289;48.572;13.378;2023-03-23T14:32:34;19.50;95.60
48488;DHT22;34289;48.572;13.378;2023-03-23T14:35:06;19.50;94.30
48488;DHT22;34289;48.572;13.378;2023-03-23T14:37:33;19.60;94.50
48488;DHT22;34289;48.572;13.378;2023-03-23T14:40:01;19.60;95.40
48488;DHT22;34289;48.572;13.378;2023-03-23T14:42:33;19.60;95.60
48488;DHT22;34289;48.572;13.378;2023-03-23T14:45:01;19.60;95.30
48488;DHT22;34289;48.572;13.378;2023-03-23T14:47:34;19.60;95.70
48488;DHT22;34289;48.572;13.378;2023-03-23T14:50:03;19.60;94.40
48488;DHT22;34289;48.572;13.378;2023-03-23T14:52:36;19.60;95.80
48488;DHT22;34289;48.572;13.378;2023-03-23T14:55:16;19.70;95.90
48488;DHT22;34289;48.572;13.378;2023-03-23T14:57:42;19.60;96.20
48488;DHT22;34289;48.572;13.378;2023-03-23T15:00:32;19.60;97.20
48488;DHT22;34289;48.572;13.378;2023-03-23T15:02:59;19.50;96.70
48488;DHT22;34289;48.572;13.378;2023-03-23T15:05:31;19.60;96.10
48488;DHT22;34289;48.572;13.378;2023-03-23T15:08:05;19.40;94.60
48488;DHT22;34289;48.572;13.378;2023-03-23T15:10:32;19.40;94.10
48488;DHT22;34289;48.572;13.378;2023-03-23T15:12:58;19.20;95.50
48488;DHT22;34289;48.572;13.378;2023-03-23T15:15:33;19.10;95.60
48488;DHT22;34289;48.572;13.378;2023-03-23T15:18:00;19.00;95.70
48488;DHT22;34289;48.572;13.378;2023-03-23T15:20:31;18.90;95.20
48488;DHT22;34289;48.572;13.378;2023-03-23T15:23:05;18.80;96.10
48488;DHT22;34289;48.572;13.378;2023-03-23T15:25:33;18.70;96.20
48488;DHT22;34289;48.572;13.378;2023-03-23T15:28:15;18.50;96.50
48488;DHT22;34289;48.572;13.378;2023-03-23T15:31:00;18.40;96.90
48488;DHT22;34289;48.572;13.378;2023-03-23T15:33:26;18.30;97.20
48488;DHT22;34289;48.572;13.378;2023-03-23T15:35:55;18.30;97.80
48488;DHT22;34289;48.572;13.378;2023-03-23T15:38:32;18.20;98.10
48488;DHT22;34289;48.572;13.378;2023-03-23T15:41:00;18.20;98.50
48488;DHT22;34289;48.572;13.378;2023-03-23T15:45:59;18.20;98.10
48488;DHT22;34289;48.572;13.378;2023-03-23T15:49:12;18.10;98.20
48488;DHT22;34289;48.572;13.378;2023-03-23T15:51:36;18.00;99.10
48488;DHT22;34289;48.572;13.378;2023-03-23T15:54:03;17.90;99.30
48488;DHT22;34289;48.572;13.378;2023-03-23T15:56:28;17.80;99.40
48488;DHT22;34289;48.572;13.378;2023-03-23T15:58:57;17.80;99.80
48488;DHT22;34289;48.572;13.378;2023-03-23T16:01:25;17.70;99.90
48488;DHT22;34289;48.572;13.378;2023-03-23T16:04:10;17.60;99.90
48488;DHT22;34289;48.572;13.378;2023-03-23T16:06:37;17.50;99.90
48488;DHT22;34289;48.572;13.378;2023-03-23T16:09:05;17.50;99.90
48488;DHT22;34289;48.572;13.378;2023-03-23T16:11:32;17.40;99.90
48488;DHT22;34289;48.572;13.378;2023-03-23T16:13:59;17.30;99.90
48488;DHT22;34289;48.572;13.378;2023-03-23T16:16:43;17.20;99.90
48488;DHT22;34289;48.572;13.378;2023-03-23T16:19:14;17.10;99.90
48488;DHT22;34289;48.572;13.378;2023-03-23T16:21:40;16.90;99.90
48488;DHT22;34289;48.572;13.378;2023-03-23T16:24:07;16.90;99.90
48488;DHT22;34289;48.572;13.378;2023-03-23T16:26:34;16.90;99.90
48488;DHT22;34289;48.572;13.378;2023-03-23T16:29:00;17.10;99.90
48488;DHT22;34289;48.572;13.378;2023-03-23T16:31:27;17.00;99.90
48488;DHT22;34289;48.572;13.378;2023-03-23T16:33:52;16.80;99.90
48488;DHT22;34289;48.572;13.378;2023-03-23T16:36:18;16.60;99.90
48488;DHT22;34289;48.572;13.378;2023-03-23T16:38:44;16.40;99.90
48488;DHT22;34289;48.572;13.378;2023-03-23T16:41:09;16.40;99.90
48488;DHT22;34289;48.572;13.378;2023-03-23T16:43:35;16.40;99.90
48488;DHT22;34289;48.572;13.378;2023-03-23T16:46:00;16.30;99.90
48488;DHT22;34289;48.572;13.378;2023-03-23T16:48:26;16.30;99.90
48488;DHT22;34289;48.572;13.378;2023-03-23T16:50:52;16.20;99.90
48488;DHT22;34289;48.572;13.378;2023-03-23T16:53:19;16.10;99.90
48488;DHT22;34289;48.572;13.378;2023-03-23T16:55:46;16.10;99.90
48488;DHT22;34289;48.572;13.378;2023-03-23T16:58:14;16.00;99.90
48488;DHT22;34289;48.572;13.378;2023-03-23T17:00:41;16.00;99.90
48488;DHT22;34289;48.572;13.378;2023-03-23T17:03:07;15.90;99.90
48488;DHT22;34289;48.572;13.378;2023-03-23T17:05:34;16.10;99.90
48488;DHT22;34289;48.572;13.378;2023-03-23T17:08:00;16.00;99.90
48488;DHT22;34289;48.572;13.378;2023-03-23T17:10:27;15.80;99.90
48488;DHT22;34289;48.572;13.378;2023-03-23T17:12:54;15.70;99.90
48488;DHT22;34289;48.572;13.378;2023-03-23T17:15:20;15.70;99.90
48488;DHT22;34289;48.572;13.378;2023-03-23T17:17:46;15.50;99.90
48488;DHT22;34289;48.572;13.378;2023-03-23T17:20:12;15.40;99.90
48488;DHT22;34289;48.572;13.378;2023-03-23T17:22:38;15.30;99.90
48488;DHT22;34289;48.572;13.378;2023-03-23T17:25:05;15.20;99.90
48488;DHT22;34289;48.572;13.378;2023-03-23T17:27:31;15.20;99.90